sensor_id;sensor_type;location;lat;lon;timestamp;P1;durP1;ratioP1;P2;durP2;ratioP2
4827;SDS011;2428;48.732;9.148;2023-08-06T00:00:38;5.50;;;4.23;;
4827;SDS011;2428;48.732;9.148;2023-08-06T00:03:04;3.90;;;3.23;;
4827;SDS011;2428;48.732;9.148;2023-08-06T00:05:30;5.00;;;4.40;;
4827;SDS011;2428;48.732;9.148;2023-08-06T00:07:55;3.40;;;3.10;;
4827;SDS011;2428;48.732;9.148;2023-08-06T00:10:21;3.40;;;3.10;;
4827;SDS011;2428;48.732;9.148;2023-08-06T00:12:47;4.87;;;3.70;;
4827;SDS011;2428;48.732;9.148;2023-08-06T00:15:13;4.93;;;3.63;;
4827;SDS011;2428;48.732;9.148;2023-08-06T00:17:39;5.40;;;4.10;;
4827;SDS011;2428;48.732;9.148;2023-08-06T00:20:05;4.30;;;3.90;;
4827;SDS011;2428;48.732;9.148;2023-08-06T00:22:32;3.90;;;3.30;;
4827;SDS011;2428;48.732;9.148;2023-08-06T00:25:02;5.23;;;4.03;;
4827;SDS011;2428;48.732;9.148;2023-08-06T00:27:28;3.93;;;3.10;;
4827;SDS011;2428;48.732;9.148;2023-08-06T00:29:54;2.90;;;2.60;;
4827;SDS011;2428;48.732;9.148;2023-08-06T00:32:20;3.40;;;3.00;;
4827;SDS011;2428;48.732;9.148;2023-08-06T00:34:46;3.10;;;2.90;;
4827;SDS011;2428;48.732;9.148;2023-08-06T00:37:14;2.67;;;2.40;;
4827;SDS011;2428;48.732;9.148;2023-08-06T00:39:41;4.23;;;2.67;;
4827;SDS011;2428;48.732;9.148;2023-08-06T00:42:06;2.47;;;2.27;;
4827;SDS011;2428;48.732;9.148;2023-08-06T00:44:32;2.50;;;2.30;;
4827;SDS011;2428;48.732;9.148;2023-08-06T00:46:57;2.50;;;2.30;;
4827;SDS011;2428;48.732;9.148;2023-08-06T00:49:23;2.53;;;2.17;;
4827;SDS011;2428;48.732;9.148;2023-08-06T00:51:49;2.30;;;2.10;;
4827;SDS011;2428;48.732;9.148;2023-08-06T00:54:15;2.00;;;1.90;;
4827;SDS011;2428;48.732;9.148;2023-08-06T00:56:41;2.47;;;2.27;;
4827;SDS011;2428;48.732;9.148;2023-08-06T00:59:07;3.00;;;2.23;;
4827;SDS011;2428;48.732;9.148;2023-08-06T01:01:34;2.33;;;2.13;;
4827;SDS011;2428;48.732;9.148;2023-08-06T01:04:00;2.57;;;2.10;;
4827;SDS011;2428;48.732;9.148;2023-08-06T01:06:34;2.50;;;2.20;;
4827;SDS011;2428;48.732;9.148;2023-08-06T01:09:11;2.30;;;2.10;;
4827;SDS011;2428;48.732;9.148;2023-08-06T01:12:06;2.40;;;2.20;;
4827;SDS011;2428;48.732;9.148;2023-08-06T01:17:36;1.73;;;1.63;;
4827;SDS011;2428;48.732;9.148;2023-08-06T01:20:02;2.70;;;2.40;;
4827;SDS011;2428;48.732;9.148;2023-08-06T01:22:28;1.80;;;1.70;;
4827;SDS011;2428;48.732;9.148;2023-08-06T01:24:54;2.57;;;2.37;;
4827;SDS011;2428;48.732;9.148;2023-08-06T01:27:23;2.10;;;1.73;;
4827;SDS011;2428;48.732;9.148;2023-08-06T01:29:57;1.73;;;1.63;;
4827;SDS011;2428;48.732;9.148;2023-08-06T01:32:29;2.10;;;1.90;;
4827;SDS011;2428;48.732;9.148;2023-08-06T01:34:59;2.20;;;2.03;;
4827;SDS011;2428;48.732;9.148;2023-08-06T01:37:26;2.83;;;2.60;;
4827;SDS011;2428;48.732;9.148;2023-08-06T01:39:53;2.70;;;2.00;;
4827;SDS011;2428;48.732;9.148;2023-08-06T01:42:19;2.20;;;2.00;;
4827;SDS011;2428;48.732;9.148;2023-08-06T01:44:44;2.60;;;2.40;;
4827;SDS011;2428;48.732;9.148;2023-08-06T01:47:10;2.37;;;2.17;;
4827;SDS011;2428;48.732;9.148;2023-08-06T01:49:35;2.80;;;2.30;;
4827;SDS011;2428;48.732;9.148;2023-08-06T01:52:01;3.00;;;2.53;;
4827;SDS011;2428;48.732;9.148;2023-08-06T01:54:26;2.53;;;2.33;;
4827;SDS011;2428;48.732;9.148;2023-08-06T01:56:52;2.07;;;1.90;;
4827;SDS011;2428;48.732;9.148;2023-08-06T01:59:18;4.40;;;2.40;;
4827;SDS011;2428;48.732;9.148;2023-08-06T02:01:44;2.20;;;2.10;;
4827;SDS011;2428;48.732;9.148;2023-08-06T02:04:10;2.40;;;2.13;;
4827;SDS011;2428;48.732;9.148;2023-08-06T02:06:35;2.67;;;2.47;;
4827;SDS011;2428;48.732;9.148;2023-08-06T02:09:01;2.77;;;2.43;;
4827;SDS011;2428;48.732;9.148;2023-08-06T02:11:26;3.70;;;2.10;;
4827;SDS011;2428;48.732;9.148;2023-08-06T02:13:52;2.43;;;2.10;;
4827;SDS011;2428;48.732;9.148;2023-08-06T02:16:17;1.70;;;1.60;;
4827;SDS011;2428;48.732;9.148;2023-08-06T02:18:43;2.97;;;2.20;;
4827;SDS011;2428;48.732;9.148;2023-08-06T02:21:09;2.60;;;2.40;;
4827;SDS011;2428;48.732;9.148;2023-08-06T02:23:34;2.30;;;2.00;;
4827;SDS011;2428;48.732;9.148;2023-08-06T02:26:00;2.77;;;2.57;;
4827;SDS011;2428;48.732;9.148;2023-08-06T02:28:27;2.50;;;2.23;;
4827;SDS011;2428;48.732;9.148;2023-08-06T02:30:53;1.70;;;1.60;;
4827;SDS011;2428;48.732;9.148;2023-08-06T02:33:19;3.17;;;2.43;;
4827;SDS011;2428;48.732;9.148;2023-08-06T02:35:44;2.70;;;1.87;;
4827;SDS011;2428;48.732;9.148;2023-08-06T02:38:10;2.37;;;2.20;;
4827;SDS011;2428;48.732;9.148;2023-08-06T02:40:35;1.50;;;1.40;;
4827;SDS011;2428;48.732;9.148;2023-08-06T02:43:01;2.43;;;2.33;;
4827;SDS011;2428;48.732;9.148;2023-08-06T02:45:27;1.87;;;1.77;;
4827;SDS011;2428;48.732;9.148;2023-08-06T02:47:53;1.80;;;1.70;;
4827;SDS011;2428;48.732;9.148;2023-08-06T02:50:19;1.77;;;1.67;;
4827;SDS011;2428;48.732;9.148;2023-08-06T02:52:44;1.83;;;1.70;;
4827;SDS011;2428;48.732;9.148;2023-08-06T02:55:10;1.80;;;1.70;;
4827;SDS011;2428;48.732;9.148;2023-08-06T02:57:35;2.10;;;1.90;;
4827;SDS011;2428;48.732;9.148;2023-08-06T03:00:01;2.27;;;2.17;;
4827;SDS011;2428;48.732;9.148;2023-08-06T03:02:27;2.40;;;1.80;;
4827;SDS011;2428;48.732;9.148;2023-08-06T03:04:53;1.83;;;1.73;;
4827;SDS011;2428;48.732;9.148;2023-08-06T03:07:18;2.30;;;2.07;;
4827;SDS011;2428;48.732;9.148;2023-08-06T03:09:44;2.03;;;1.67;;
4827;SDS011;2428;48.732;9.148;2023-08-06T03:12:09;2.07;;;1.90;;
4827;SDS011;2428;48.732;9.148;2023-08-06T03:14:35;2.40;;;1.50;;
4827;SDS011;2428;48.732;9.148;2023-08-06T03:17:01;1.87;;;1.60;;
4827;SDS011;2428;48.732;9.148;2023-08-06T03:19:26;2.43;;;1.80;;
4827;SDS011;2428;48.732;9.148;2023-08-06T03:21:52;2.20;;;2.00;;
4827;SDS011;2428;48.732;9.148;2023-08-06T03:24:17;1.90;;;1.30;;
4827;SDS011;2428;48.732;9.148;2023-08-06T03:26:43;1.90;;;1.70;;
4827;SDS011;2428;48.732;9.148;2023-08-06T03:29:08;1.33;;;1.27;;
4827;SDS011;2428;48.732;9.148;2023-08-06T03:31:34;1.80;;;1.63;;
4827;SDS011;2428;48.732;9.148;2023-08-06T03:34:00;1.87;;;1.30;;
4827;SDS011;2428;48.732;9.148;2023-08-06T03:36:25;2.50;;;2.00;;
4827;SDS011;2428;48.732;9.148;2023-08-06T03:38:51;1.97;;;1.60;;
4827;SDS011;2428;48.732;9.148;2023-08-06T03:41:16;2.90;;;1.60;;
4827;SDS011;2428;48.732;9.148;2023-08-06T03:43:42;1.43;;;1.30;;
4827;SDS011;2428;48.732;9.148;2023-08-06T03:46:07;1.50;;;1.40;;
4827;SDS011;2428;48.732;9.148;2023-08-06T03:48:33;1.90;;;1.47;;
4827;SDS011;2428;48.732;9.148;2023-08-06T03:50:58;1.73;;;1.63;;
4827;SDS011;2428;48.732;9.148;2023-08-06T03:53:26;1.43;;;1.30;;
4827;SDS011;2428;48.732;9.148;2023-08-06T03:55:52;1.60;;;1.50;;
4827;SDS011;2428;48.732;9.148;2023-08-06T03:58:17;1.67;;;1.57;;
4827;SDS011;2428;48.732;9.148;2023-08-06T04:00:43;1.60;;;1.50;;
4827;SDS011;2428;48.732;9.148;2023-08-06T04:03:08;1.13;;;1.03;;
4827;SDS011;2428;48.732;9.148;2023-08-06T04:05:34;1.30;;;1.30;;
4827;SDS011;2428;48.732;9.148;2023-08-06T04:07:59;1.63;;;1.10;;
4827;SDS011;2428;48.732;9.148;2023-08-06T04:10:25;1.40;;;1.30;;
4827;SDS011;2428;48.732;9.148;2023-08-06T04:12:51;1.10;;;1.10;;
4827;SDS011;2428;48.732;9.148;2023-08-06T04:15:16;1.23;;;1.20;;
4827;SDS011;2428;48.732;9.148;2023-08-06T04:17:42;1.67;;;1.57;;
4827;SDS011;2428;48.732;9.148;2023-08-06T04:20:07;1.20;;;1.13;;
4827;SDS011;2428;48.732;9.148;2023-08-06T04:22:33;1.20;;;1.20;;
4827;SDS011;2428;48.732;9.148;2023-08-06T04:24:59;1.30;;;1.20;;
4827;SDS011;2428;48.732;9.148;2023-08-06T04:27:24;1.80;;;1.47;;
4827;SDS011;2428;48.732;9.148;2023-08-06T04:29:50;1.10;;;1.00;;
4827;SDS011;2428;48.732;9.148;2023-08-06T04:32:16;1.60;;;1.33;;
4827;SDS011;2428;48.732;9.148;2023-08-06T04:34:42;0.97;;;0.97;;
4827;SDS011;2428;48.732;9.148;2023-08-06T04:37:08;1.13;;;1.03;;
4827;SDS011;2428;48.732;9.148;2023-08-06T04:39:34;0.90;;;0.90;;
4827;SDS011;2428;48.732;9.148;2023-08-06T04:41:59;2.30;;;1.60;;
4827;SDS011;2428;48.732;9.148;2023-08-06T04:44:25;1.00;;;1.00;;
4827;SDS011;2428;48.732;9.148;2023-08-06T04:46:50;1.17;;;1.07;;
4827;SDS011;2428;48.732;9.148;2023-08-06T04:49:16;0.87;;;0.87;;
4827;SDS011;2428;48.732;9.148;2023-08-06T04:51:42;1.20;;;1.13;;
4827;SDS011;2428;48.732;9.148;2023-08-06T04:54:08;1.10;;;1.00;;
4827;SDS011;2428;48.732;9.148;2023-08-06T04:56:34;0.97;;;0.97;;
4827;SDS011;2428;48.732;9.148;2023-08-06T04:59:00;1.90;;;1.33;;
4827;SDS011;2428;48.732;9.148;2023-08-06T05:01:25;1.93;;;1.83;;
4827;SDS011;2428;48.732;9.148;2023-08-06T05:03:51;1.03;;;0.90;;
4827;SDS011;2428;48.732;9.148;2023-08-06T05:06:16;2.20;;;0.90;;
4827;SDS011;2428;48.732;9.148;2023-08-06T05:08:42;1.37;;;1.10;;
4827;SDS011;2428;48.732;9.148;2023-08-06T05:11:08;1.13;;;1.13;;
4827;SDS011;2428;48.732;9.148;2023-08-06T05:13:34;1.10;;;1.10;;
4827;SDS011;2428;48.732;9.148;2023-08-06T05:16:00;0.90;;;0.90;;
4827;SDS011;2428;48.732;9.148;2023-08-06T05:18:25;1.00;;;1.00;;
4827;SDS011;2428;48.732;9.148;2023-08-06T05:20:51;1.40;;;0.87;;
4827;SDS011;2428;48.732;9.148;2023-08-06T05:23:16;0.83;;;0.83;;
4827;SDS011;2428;48.732;9.148;2023-08-06T05:25:42;1.17;;;0.87;;
4827;SDS011;2428;48.732;9.148;2023-08-06T05:28:08;0.97;;;0.97;;
4827;SDS011;2428;48.732;9.148;2023-08-06T05:30:33;0.93;;;0.93;;
4827;SDS011;2428;48.732;9.148;2023-08-06T05:33:02;0.80;;;0.80;;
4827;SDS011;2428;48.732;9.148;2023-08-06T05:35:27;0.80;;;0.80;;
4827;SDS011;2428;48.732;9.148;2023-08-06T05:37:53;0.80;;;0.80;;
4827;SDS011;2428;48.732;9.148;2023-08-06T05:40:18;0.80;;;0.80;;
4827;SDS011;2428;48.732;9.148;2023-08-06T05:42:44;0.80;;;0.80;;
4827;SDS011;2428;48.732;9.148;2023-08-06T05:45:09;0.83;;;0.83;;
4827;SDS011;2428;48.732;9.148;2023-08-06T05:47:35;0.80;;;0.80;;
4827;SDS011;2428;48.732;9.148;2023-08-06T05:50:01;0.80;;;0.80;;
4827;SDS011;2428;48.732;9.148;2023-08-06T05:52:26;3.53;;;1.10;;
4827;SDS011;2428;48.732;9.148;2023-08-06T05:54:52;5.90;;;0.70;;
4827;SDS011;2428;48.732;9.148;2023-08-06T05:57:17;0.90;;;0.90;;
4827;SDS011;2428;48.732;9.148;2023-08-06T05:59:43;0.70;;;0.70;;
4827;SDS011;2428;48.732;9.148;2023-08-06T06:02:09;1.13;;;0.40;;
4827;SDS011;2428;48.732;9.148;2023-08-06T06:04:34;0.83;;;0.83;;
4827;SDS011;2428;48.732;9.148;2023-08-06T06:07:00;2.00;;;0.83;;
4827;SDS011;2428;48.732;9.148;2023-08-06T06:09:26;1.13;;;0.70;;
4827;SDS011;2428;48.732;9.148;2023-08-06T06:11:51;0.73;;;0.73;;
4827;SDS011;2428;48.732;9.148;2023-08-06T06:14:17;0.50;;;0.50;;
4827;SDS011;2428;48.732;9.148;2023-08-06T06:16:43;0.60;;;0.60;;
4827;SDS011;2428;48.732;9.148;2023-08-06T06:19:09;1.27;;;1.17;;
4827;SDS011;2428;48.732;9.148;2023-08-06T06:21:34;2.43;;;0.83;;
4827;SDS011;2428;48.732;9.148;2023-08-06T06:24:00;1.33;;;0.90;;
4827;SDS011;2428;48.732;9.148;2023-08-06T06:26:26;0.80;;;0.80;;
4827;SDS011;2428;48.732;9.148;2023-08-06T06:28:51;0.70;;;0.70;;
4827;SDS011;2428;48.732;9.148;2023-08-06T06:31:17;0.60;;;0.60;;
4827;SDS011;2428;48.732;9.148;2023-08-06T06:33:42;0.40;;;0.40;;
4827;SDS011;2428;48.732;9.148;2023-08-06T06:36:08;2.10;;;0.83;;
4827;SDS011;2428;48.732;9.148;2023-08-06T06:38:34;0.93;;;0.93;;
4827;SDS011;2428;48.732;9.148;2023-08-06T06:41:00;0.83;;;0.70;;
4827;SDS011;2428;48.732;9.148;2023-08-06T06:43:28;0.93;;;0.93;;
4827;SDS011;2428;48.732;9.148;2023-08-06T06:45:55;0.50;;;0.50;;
4827;SDS011;2428;48.732;9.148;2023-08-06T06:48:23;0.53;;;0.53;;
4827;SDS011;2428;48.732;9.148;2023-08-06T06:50:48;0.70;;;0.70;;
4827;SDS011;2428;48.732;9.148;2023-08-06T06:53:14;0.90;;;0.83;;
4827;SDS011;2428;48.732;9.148;2023-08-06T06:55:40;0.70;;;0.70;;
4827;SDS011;2428;48.732;9.148;2023-08-06T06:58:05;1.00;;;0.80;;
4827;SDS011;2428;48.732;9.148;2023-08-06T07:00:31;0.33;;;0.33;;
4827;SDS011;2428;48.732;9.148;2023-08-06T07:02:56;0.60;;;0.60;;
4827;SDS011;2428;48.732;9.148;2023-08-06T07:05:22;0.87;;;0.87;;
4827;SDS011;2428;48.732;9.148;2023-08-06T07:07:47;0.70;;;0.70;;
4827;SDS011;2428;48.732;9.148;2023-08-06T07:10:13;0.50;;;0.50;;
4827;SDS011;2428;48.732;9.148;2023-08-06T07:12:38;0.60;;;0.60;;
4827;SDS011;2428;48.732;9.148;2023-08-06T07:15:05;0.50;;;0.50;;
4827;SDS011;2428;48.732;9.148;2023-08-06T07:17:31;0.57;;;0.57;;
4827;SDS011;2428;48.732;9.148;2023-08-06T07:19:57;5.63;;;0.53;;
4827;SDS011;2428;48.732;9.148;2023-08-06T07:22:22;0.70;;;0.70;;
4827;SDS011;2428;48.732;9.148;2023-08-06T07:24:48;1.27;;;1.00;;
4827;SDS011;2428;48.732;9.148;2023-08-06T07:27:14;0.90;;;0.90;;
4827;SDS011;2428;48.732;9.148;2023-08-06T07:29:39;0.60;;;0.60;;
4827;SDS011;2428;48.732;9.148;2023-08-06T07:32:06;0.83;;;0.83;;
4827;SDS011;2428;48.732;9.148;2023-08-06T07:34:32;0.50;;;0.50;;
4827;SDS011;2428;48.732;9.148;2023-08-06T07:36:57;0.63;;;0.63;;
4827;SDS011;2428;48.732;9.148;2023-08-06T07:39:23;0.70;;;0.70;;
4827;SDS011;2428;48.732;9.148;2023-08-06T07:41:49;0.40;;;0.40;;
4827;SDS011;2428;48.732;9.148;2023-08-06T07:44:14;0.47;;;0.43;;
4827;SDS011;2428;48.732;9.148;2023-08-06T07:46:40;0.50;;;0.50;;
4827;SDS011;2428;48.732;9.148;2023-08-06T07:49:06;0.50;;;0.50;;
4827;SDS011;2428;48.732;9.148;2023-08-06T07:51:36;0.50;;;0.50;;
4827;SDS011;2428;48.732;9.148;2023-08-06T07:54:05;0.60;;;0.60;;
4827;SDS011;2428;48.732;9.148;2023-08-06T07:56:31;0.57;;;0.57;;
4827;SDS011;2428;48.732;9.148;2023-08-06T07:59:01;0.50;;;0.50;;
4827;SDS011;2428;48.732;9.148;2023-08-06T08:01:27;0.40;;;0.40;;
4827;SDS011;2428;48.732;9.148;2023-08-06T08:03:52;0.90;;;0.90;;
4827;SDS011;2428;48.732;9.148;2023-08-06T08:06:18;0.40;;;0.40;;
4827;SDS011;2428;48.732;9.148;2023-08-06T08:08:43;0.40;;;0.40;;
4827;SDS011;2428;48.732;9.148;2023-08-06T08:11:09;0.70;;;0.70;;
4827;SDS011;2428;48.732;9.148;2023-08-06T08:13:35;0.40;;;0.40;;
4827;SDS011;2428;48.732;9.148;2023-08-06T08:16:00;0.50;;;0.50;;
4827;SDS011;2428;48.732;9.148;2023-08-06T08:18:26;0.47;;;0.47;;
4827;SDS011;2428;48.732;9.148;2023-08-06T08:20:52;0.40;;;0.40;;
4827;SDS011;2428;48.732;9.148;2023-08-06T08:23:18;0.50;;;0.50;;
4827;SDS011;2428;48.732;9.148;2023-08-06T08:25:43;0.67;;;0.67;;
4827;SDS011;2428;48.732;9.148;2023-08-06T08:28:09;0.60;;;0.60;;
4827;SDS011;2428;48.732;9.148;2023-08-06T08:30:35;1.27;;;0.70;;
4827;SDS011;2428;48.732;9.148;2023-08-06T08:33:00;0.43;;;0.43;;
4827;SDS011;2428;48.732;9.148;2023-08-06T08:35:28;0.60;;;0.60;;
4827;SDS011;2428;48.732;9.148;2023-08-06T08:37:54;0.73;;;0.73;;
4827;SDS011;2428;48.732;9.148;2023-08-06T08:40:19;1.20;;;0.97;;
4827;SDS011;2428;48.732;9.148;2023-08-06T08:42:51;1.00;;;0.90;;
4827;SDS011;2428;48.732;9.148;2023-08-06T08:45:17;0.53;;;0.53;;
4827;SDS011;2428;48.732;9.148;2023-08-06T08:47:47;0.50;;;0.50;;
4827;SDS011;2428;48.732;9.148;2023-08-06T08:50:12;0.60;;;0.60;;
4827;SDS011;2428;48.732;9.148;2023-08-06T08:52:39;1.00;;;1.00;;
4827;SDS011;2428;48.732;9.148;2023-08-06T08:55:06;0.30;;;0.30;;
4827;SDS011;2428;48.732;9.148;2023-08-06T08:57:32;0.93;;;0.50;;
4827;SDS011;2428;48.732;9.148;2023-08-06T08:59:58;0.40;;;0.40;;
4827;SDS011;2428;48.732;9.148;2023-08-06T09:02:24;0.40;;;0.40;;
4827;SDS011;2428;48.732;9.148;2023-08-06T09:04:52;0.50;;;0.50;;
4827;SDS011;2428;48.732;9.148;2023-08-06T09:07:19;1.33;;;0.40;;
4827;SDS011;2428;48.732;9.148;2023-08-06T09:09:48;0.57;;;0.57;;
4827;SDS011;2428;48.732;9.148;2023-08-06T09:12:15;0.50;;;0.50;;
4827;SDS011;2428;48.732;9.148;2023-08-06T09:14:41;0.47;;;0.47;;
4827;SDS011;2428;48.732;9.148;2023-08-06T09:17:07;0.50;;;0.50;;
4827;SDS011;2428;48.732;9.148;2023-08-06T09:19:35;0.50;;;0.50;;
4827;SDS011;2428;48.732;9.148;2023-08-06T09:22:01;1.90;;;0.73;;
4827;SDS011;2428;48.732;9.148;2023-08-06T09:24:27;0.43;;;0.43;;
4827;SDS011;2428;48.732;9.148;2023-08-06T09:26:53;0.40;;;0.40;;
4827;SDS011;2428;48.732;9.148;2023-08-06T09:29:19;0.40;;;0.40;;
4827;SDS011;2428;48.732;9.148;2023-08-06T09:31:46;0.60;;;0.60;;
4827;SDS011;2428;48.732;9.148;2023-08-06T09:34:16;0.50;;;0.50;;
4827;SDS011;2428;48.732;9.148;2023-08-06T09:36:43;0.40;;;0.40;;
4827;SDS011;2428;48.732;9.148;2023-08-06T09:39:18;0.50;;;0.50;;
4827;SDS011;2428;48.732;9.148;2023-08-06T09:41:45;0.40;;;0.40;;
4827;SDS011;2428;48.732;9.148;2023-08-06T09:44:17;0.87;;;0.50;;
4827;SDS011;2428;48.732;9.148;2023-08-06T09:46:47;0.70;;;0.70;;
4827;SDS011;2428;48.732;9.148;2023-08-06T09:49:14;0.60;;;0.47;;
4827;SDS011;2428;48.732;9.148;2023-08-06T09:51:40;0.50;;;0.50;;
4827;SDS011;2428;48.732;9.148;2023-08-06T09:54:06;0.40;;;0.40;;
4827;SDS011;2428;48.732;9.148;2023-08-06T09:56:35;0.30;;;0.30;;
4827;SDS011;2428;48.732;9.148;2023-08-06T09:59:04;0.43;;;0.30;;
4827;SDS011;2428;48.732;9.148;2023-08-06T10:01:32;0.30;;;0.30;;
4827;SDS011;2428;48.732;9.148;2023-08-06T10:04:04;0.30;;;0.30;;
4827;SDS011;2428;48.732;9.148;2023-08-06T10:06:33;0.40;;;0.40;;
4827;SDS011;2428;48.732;9.148;2023-08-06T10:09:00;0.43;;;0.43;;
4827;SDS011;2428;48.732;9.148;2023-08-06T10:11:26;0.40;;;0.40;;
4827;SDS011;2428;48.732;9.148;2023-08-06T10:13:55;0.70;;;0.70;;
4827;SDS011;2428;48.732;9.148;2023-08-06T10:16:28;0.40;;;0.40;;
4827;SDS011;2428;48.732;9.148;2023-08-06T10:18:54;0.57;;;0.57;;
4827;SDS011;2428;48.732;9.148;2023-08-06T10:21:23;0.50;;;0.50;;
4827;SDS011;2428;48.732;9.148;2023-08-06T10:23:53;0.50;;;0.50;;
4827;SDS011;2428;48.732;9.148;2023-08-06T10:26:19;0.53;;;0.53;;
4827;SDS011;2428;48.732;9.148;2023-08-06T10:28:45;0.57;;;0.57;;
4827;SDS011;2428;48.732;9.148;2023-08-06T10:31:11;0.40;;;0.40;;
4827;SDS011;2428;48.732;9.148;2023-08-06T10:33:43;0.30;;;0.30;;
4827;SDS011;2428;48.732;9.148;2023-08-06T10:36:10;0.40;;;0.40;;
4827;SDS011;2428;48.732;9.148;2023-08-06T10:38:46;0.30;;;0.30;;
4827;SDS011;2428;48.732;9.148;2023-08-06T10:41:17;0.30;;;0.30;;
4827;SDS011;2428;48.732;9.148;2023-08-06T10:43:48;0.50;;;0.50;;
4827;SDS011;2428;48.732;9.148;2023-08-06T10:46:26;0.50;;;0.50;;
4827;SDS011;2428;48.732;9.148;2023-08-06T10:48:52;0.60;;;0.57;;
4827;SDS011;2428;48.732;9.148;2023-08-06T10:51:18;0.60;;;0.60;;
4827;SDS011;2428;48.732;9.148;2023-08-06T10:53:44;0.70;;;0.70;;
4827;SDS011;2428;48.732;9.148;2023-08-06T10:58:39;0.33;;;0.33;;
4827;SDS011;2428;48.732;9.148;2023-08-06T11:01:05;0.30;;;0.30;;
4827;SDS011;2428;48.732;9.148;2023-08-06T11:03:31;0.53;;;0.53;;
4827;SDS011;2428;48.732;9.148;2023-08-06T11:05:59;0.60;;;0.60;;
4827;SDS011;2428;48.732;9.148;2023-08-06T11:08:25;0.40;;;0.40;;
4827;SDS011;2428;48.732;9.148;2023-08-06T11:11:10;0.30;;;0.30;;
4827;SDS011;2428;48.732;9.148;2023-08-06T11:13:38;0.30;;;0.30;;
4827;SDS011;2428;48.732;9.148;2023-08-06T11:16:07;0.37;;;0.37;;
4827;SDS011;2428;48.732;9.148;2023-08-06T11:18:34;0.40;;;0.40;;
4827;SDS011;2428;48.732;9.148;2023-08-06T11:21:00;0.57;;;0.57;;
4827;SDS011;2428;48.732;9.148;2023-08-06T11:23:26;0.57;;;0.57;;
4827;SDS011;2428;48.732;9.148;2023-08-06T11:25:53;0.50;;;0.50;;
4827;SDS011;2428;48.732;9.148;2023-08-06T11:28:20;0.83;;;0.57;;
4827;SDS011;2428;48.732;9.148;2023-08-06T11:30:49;0.50;;;0.50;;
4827;SDS011;2428;48.732;9.148;2023-08-06T11:33:20;0.57;;;0.57;;
4827;SDS011;2428;48.732;9.148;2023-08-06T11:35:47;0.50;;;0.50;;
4827;SDS011;2428;48.732;9.148;2023-08-06T11:38:13;0.70;;;0.60;;
4827;SDS011;2428;48.732;9.148;2023-08-06T11:40:39;1.00;;;0.60;;
4827;SDS011;2428;48.732;9.148;2023-08-06T11:43:05;0.60;;;0.60;;
4827;SDS011;2428;48.732;9.148;2023-08-06T11:45:31;0.50;;;0.43;;
4827;SDS011;2428;48.732;9.148;2023-08-06T11:47:59;0.70;;;0.70;;
4827;SDS011;2428;48.732;9.148;2023-08-06T11:50:25;0.40;;;0.40;;
4827;SDS011;2428;48.732;9.148;2023-08-06T11:52:59;0.70;;;0.60;;
4827;SDS011;2428;48.732;9.148;2023-08-06T11:55:25;0.73;;;0.73;;
4827;SDS011;2428;48.732;9.148;2023-08-06T11:57:53;0.60;;;0.60;;
4827;SDS011;2428;48.732;9.148;2023-08-06T12:00:19;0.80;;;0.80;;
4827;SDS011;2428;48.732;9.148;2023-08-06T12:02:47;0.63;;;0.63;;
4827;SDS011;2428;48.732;9.148;2023-08-06T12:05:16;0.83;;;0.50;;
4827;SDS011;2428;48.732;9.148;2023-08-06T12:07:46;0.67;;;0.63;;
4827;SDS011;2428;48.732;9.148;2023-08-06T12:10:13;0.53;;;0.53;;
4827;SDS011;2428;48.732;9.148;2023-08-06T12:12:39;0.60;;;0.60;;
4827;SDS011;2428;48.732;9.148;2023-08-06T12:15:08;0.70;;;0.70;;
4827;SDS011;2428;48.732;9.148;2023-08-06T12:17:35;0.40;;;0.40;;
4827;SDS011;2428;48.732;9.148;2023-08-06T12:20:02;1.17;;;0.63;;
4827;SDS011;2428;48.732;9.148;2023-08-06T12:22:29;0.70;;;0.70;;
4827;SDS011;2428;48.732;9.148;2023-08-06T12:24:59;0.77;;;0.77;;
4827;SDS011;2428;48.732;9.148;2023-08-06T12:27:25;0.50;;;0.50;;
4827;SDS011;2428;48.732;9.148;2023-08-06T12:29:51;0.70;;;0.70;;
4827;SDS011;2428;48.732;9.148;2023-08-06T12:32:17;0.60;;;0.60;;
4827;SDS011;2428;48.732;9.148;2023-08-06T12:34:43;1.27;;;0.80;;
4827;SDS011;2428;48.732;9.148;2023-08-06T12:37:08;0.53;;;0.53;;
4827;SDS011;2428;48.732;9.148;2023-08-06T12:39:35;0.73;;;0.73;;
4827;SDS011;2428;48.732;9.148;2023-08-06T12:42:02;0.70;;;0.70;;
4827;SDS011;2428;48.732;9.148;2023-08-06T12:44:28;0.63;;;0.63;;
4827;SDS011;2428;48.732;9.148;2023-08-06T12:46:54;1.03;;;0.83;;
4827;SDS011;2428;48.732;9.148;2023-08-06T12:49:20;0.70;;;0.70;;
4827;SDS011;2428;48.732;9.148;2023-08-06T12:51:46;0.63;;;0.63;;
4827;SDS011;2428;48.732;9.148;2023-08-06T12:54:13;0.60;;;0.60;;
4827;SDS011;2428;48.732;9.148;2023-08-06T12:56:38;0.50;;;0.50;;
4827;SDS011;2428;48.732;9.148;2023-08-06T12:59:04;1.17;;;0.70;;
4827;SDS011;2428;48.732;9.148;2023-08-06T13:01:29;1.10;;;1.10;;
4827;SDS011;2428;48.732;9.148;2023-08-06T13:03:55;0.57;;;0.50;;
4827;SDS011;2428;48.732;9.148;2023-08-06T13:06:21;0.63;;;0.43;;
4827;SDS011;2428;48.732;9.148;2023-08-06T13:08:46;0.73;;;0.73;;
4827;SDS011;2428;48.732;9.148;2023-08-06T13:11:12;0.97;;;0.90;;
4827;SDS011;2428;48.732;9.148;2023-08-06T13:13:38;0.87;;;0.87;;
4827;SDS011;2428;48.732;9.148;2023-08-06T13:16:03;0.80;;;0.80;;
4827;SDS011;2428;48.732;9.148;2023-08-06T13:18:29;1.00;;;1.00;;
4827;SDS011;2428;48.732;9.148;2023-08-06T13:20:56;0.93;;;0.70;;
4827;SDS011;2428;48.732;9.148;2023-08-06T13:23:21;0.90;;;0.90;;
4827;SDS011;2428;48.732;9.148;2023-08-06T13:25:47;1.10;;;1.00;;
4827;SDS011;2428;48.732;9.148;2023-08-06T13:28:13;0.77;;;0.70;;
4827;SDS011;2428;48.732;9.148;2023-08-06T13:30:41;0.77;;;0.70;;
4827;SDS011;2428;48.732;9.148;2023-08-06T13:33:10;0.73;;;0.73;;
4827;SDS011;2428;48.732;9.148;2023-08-06T13:35:36;0.70;;;0.70;;
4827;SDS011;2428;48.732;9.148;2023-08-06T13:38:03;0.60;;;0.60;;
4827;SDS011;2428;48.732;9.148;2023-08-06T13:40:29;0.73;;;0.73;;
4827;SDS011;2428;48.732;9.148;2023-08-06T13:42:57;0.60;;;0.60;;
4827;SDS011;2428;48.732;9.148;2023-08-06T13:45:23;0.50;;;0.50;;
4827;SDS011;2428;48.732;9.148;2023-08-06T13:47:48;0.80;;;0.60;;
4827;SDS011;2428;48.732;9.148;2023-08-06T13:50:14;0.60;;;0.60;;
4827;SDS011;2428;48.732;9.148;2023-08-06T13:52:40;0.80;;;0.80;;
4827;SDS011;2428;48.732;9.148;2023-08-06T13:55:06;0.63;;;0.63;;
4827;SDS011;2428;48.732;9.148;2023-08-06T13:57:32;0.57;;;0.57;;
4827;SDS011;2428;48.732;9.148;2023-08-06T13:59:59;1.07;;;0.53;;
4827;SDS011;2428;48.732;9.148;2023-08-06T14:02:24;0.70;;;0.70;;
4827;SDS011;2428;48.732;9.148;2023-08-06T14:04:51;0.50;;;0.50;;
4827;SDS011;2428;48.732;9.148;2023-08-06T14:07:17;0.70;;;0.70;;
4827;SDS011;2428;48.732;9.148;2023-08-06T14:09:43;0.90;;;0.90;;
4827;SDS011;2428;48.732;9.148;2023-08-06T14:12:09;0.60;;;0.60;;
4827;SDS011;2428;48.732;9.148;2023-08-06T14:14:35;1.30;;;1.20;;
4827;SDS011;2428;48.732;9.148;2023-08-06T14:17:00;1.03;;;1.00;;
4827;SDS011;2428;48.732;9.148;2023-08-06T14:19:26;0.60;;;0.60;;
4827;SDS011;2428;48.732;9.148;2023-08-06T14:21:52;1.30;;;1.20;;
4827;SDS011;2428;48.732;9.148;2023-08-06T14:24:18;0.70;;;0.70;;
4827;SDS011;2428;48.732;9.148;2023-08-06T14:26:44;1.30;;;0.90;;
4827;SDS011;2428;48.732;9.148;2023-08-06T14:29:09;1.33;;;0.70;;
4827;SDS011;2428;48.732;9.148;2023-08-06T14:31:35;0.60;;;0.60;;
4827;SDS011;2428;48.732;9.148;2023-08-06T14:34:00;0.70;;;0.70;;
4827;SDS011;2428;48.732;9.148;2023-08-06T14:36:26;1.07;;;1.07;;
4827;SDS011;2428;48.732;9.148;2023-08-06T14:38:52;0.73;;;0.73;;
4827;SDS011;2428;48.732;9.148;2023-08-06T14:41:17;0.70;;;0.70;;
4827;SDS011;2428;48.732;9.148;2023-08-06T14:43:43;0.63;;;0.63;;
4827;SDS011;2428;48.732;9.148;2023-08-06T14:46:08;2.93;;;0.67;;
4827;SDS011;2428;48.732;9.148;2023-08-06T14:48:34;0.60;;;0.60;;
4827;SDS011;2428;48.732;9.148;2023-08-06T14:51:00;0.70;;;0.70;;
4827;SDS011;2428;48.732;9.148;2023-08-06T14:53:26;0.70;;;0.70;;
4827;SDS011;2428;48.732;9.148;2023-08-06T14:55:51;0.60;;;0.60;;
4827;SDS011;2428;48.732;9.148;2023-08-06T14:58:17;0.70;;;0.70;;
4827;SDS011;2428;48.732;9.148;2023-08-06T15:00:42;0.60;;;0.60;;
4827;SDS011;2428;48.732;9.148;2023-08-06T15:03:09;1.47;;;1.17;;
4827;SDS011;2428;48.732;9.148;2023-08-06T15:05:35;0.50;;;0.50;;
4827;SDS011;2428;48.732;9.148;2023-08-06T15:08:01;0.90;;;0.90;;
4827;SDS011;2428;48.732;9.148;2023-08-06T15:10:27;0.83;;;0.63;;
4827;SDS011;2428;48.732;9.148;2023-08-06T15:12:53;0.60;;;0.53;;
4827;SDS011;2428;48.732;9.148;2023-08-06T15:15:19;0.50;;;0.50;;